Time;durP1;ratioP1;P1;durP2;ratioP2;P2;SDS_P1;SDS_P2;PMS_P1;PMS_P2;Temp;Humidity;BMP_temperature;BMP_pressure;BME280_temperature;BME280_humidity;BME280_pressure;Samples;Min_cycle;Max_cycle;Signal;HPM_P1;HPM_P2
2023/04/19 00:01:20;;;;;;;;;;;;;;;;;;5052146;28;19921;-66
2023/04/19 00:03:46;;;;;;;;;;;;;;;;;;5032074;28;19928;-65
2023/04/19 00:06:14;;;;;;;;;;;;;;;;;;5043524;28;19925;-66
2023/04/19 00:08:40;;;;;;;;;;;;;;;;;;5055405;28;19982;-66
2023/04/19 00:11:06;;;;;;;;;;;;;;;;;;5063071;28;19975;-66
2023/04/19 00:13:32;;;;;;;;;;;;;;;;;;5050361;28;19955;-65
2023/04/19 00:15:58;;;;;;;;;;;;;;;;;;5053777;28;19978;-65
2023/04/19 00:18:24;;;;;;;;;;;;;;;;;;5049536;28;20389;-65
2023/04/19 00:20:50;;;;;;;;;;;;;;;;;;5043025;28;19920;-65
2023/04/19 00:23:15;;;;;;;;;;;;;;;;;;5047772;28;19925;-65
2023/04/19 00:25:41;;;;;;;;;;;;;;;;;;5052686;28;19920;-65
2023/04/19 00:28:07;;;;;;;;;;;;;;;;;;5059057;28;20449;-65
2023/04/19 00:30:33;;;;;;;;;;;;;;;;;;5035641;28;19925;-65
2023/04/19 00:32:59;;;;;;;;;;;;;;;;;;5052241;28;19947;-64
2023/04/19 00:35:25;;;;;;;;;;;;;;;;;;5048353;28;19925;-65
2023/04/19 00:37:51;;;;;;;;;;;;;;;;;;5050604;28;19975;-65
2023/04/19 00:40:17;;;;;;;;;;;;;;;;;;5049736;28;19968;-65
2023/04/19 00:42:43;;;;;;;;;;;;;;;;;;5067344;28;20274;-65
2023/04/19 00:45:08;;;;;;;;;;;;;;;;;;5064153;28;19979;-65
2023/04/19 00:47:34;;;;;;;;;;;;;;;;;;5048538;28;19924;-65
2023/04/19 00:50:00;;;;;;;;;;;;;;;;;;5051858;28;19921;-65
2023/04/19 00:52:26;;;;;;;;;;;;;;;;;;5048396;28;19964;-66
2023/04/19 00:54:52;;;;;;;;;;;;;;;;;;5048159;28;20036;-65
2023/04/19 00:57:18;;;;;;;;;;;;;;;;;;5050947;28;19932;-65
2023/04/19 00:59:44;;;;;;;;;;;;;;;;;;5050773;28;19974;-65
2023/04/19 01:02:10;;;;;;;;;;;;;;;;;;5050676;28;19927;-65
2023/04/19 01:04:36;;;;;;;;;;;;;;;;;;5044824;28;19929;-66
2023/04/19 01:07:02;;;;;;;;;;;;;;;;;;5047199;28;19971;-65
2023/04/19 01:09:28;;;;;;;;;;;;;;;;;;5046541;28;19925;-65
2023/04/19 01:11:54;;;;;;;;;;;;;;;;;;5048454;28;20344;-65
2023/04/19 01:14:20;;;;;;;;;;;;;;;;;;5051131;28;19924;-65
2023/04/19 01:16:46;;;;;;;;;;;;;;;;;;5047608;28;19927;-62
2023/04/19 01:19:12;;;;;;;;;;;;;;;;;;5052924;28;20381;-62
2023/04/19 01:21:39;;;;;;;;;;;;;;;;;;5052820;28;20029;-62
2023/04/19 01:24:05;;;;;;;;;;;;;;;;;;5049935;28;19920;-62
2023/04/19 01:26:31;;;;;;;;;;;;;;;;;;5052579;28;19996;-62
2023/04/19 01:28:56;;;;;;;;;;;;;;;;;;5052865;28;20243;-62
2023/04/19 01:31:22;;;;;;;;;;;;;;;;;;5053120;28;19932;-62
2023/04/19 01:33:48;;;;;;;;;;;;;;;;;;5047035;28;20358;-62
2023/04/19 01:36:14;;;;;;;;;;;;;;;;;;5052997;28;20012;-62
2023/04/19 01:38:40;;;;;;;;;;;;;;;;;;5039773;28;20003;-65
2023/04/19 01:41:06;;;;;;;;;;;;;;;;;;5049605;28;19931;-65
2023/04/19 01:43:32;;;;;;;;;;;;;;;;;;5062243;28;19983;-65
2023/04/19 01:45:58;;;;;;;;;;;;;;;;;;5051672;28;20389;-65
2023/04/19 01:48:24;;;;;;;;;;;;;;;;;;5052037;28;19928;-65
2023/04/19 01:50:50;;;;;;;;;;;;;;;;;;5051735;28;20308;-65
2023/04/19 01:53:16;;;;;;;;;;;;;;;;;;5050472;28;19920;-66
2023/04/19 01:55:42;;;;;;;;;;;;;;;;;;5048153;28;19964;-65
2023/04/19 01:58:08;;;;;;;;;;;;;;;;;;5051675;28;20015;-65
2023/04/19 02:00:34;;;;;;;;;;;;;;;;;;5051327;28;19971;-65
2023/04/19 02:03:00;;;;;;;;;;;;;;;;;;5050309;28;19921;-65
2023/04/19 02:05:26;;;;;;;;;;;;;;;;;;5031241;28;19999;-65
2023/04/19 02:07:52;;;;;;;;;;;;;;;;;;5031913;28;19925;-65
2023/04/19 02:10:18;;;;;;;;;;;;;;;;;;5043041;28;19932;-65
2023/04/19 02:12:44;;;;;;;;;;;;;;;;;;5044475;28;19924;-64
2023/04/19 02:15:11;;;;;;;;;;;;;;;;;;5043669;28;19932;-61
2023/04/19 02:17:37;;;;;;;;;;;;;;;;;;5034720;28;19932;-61
2023/04/19 02:20:03;;;;;;;;;;;;;;;;;;5068846;22;19928;-62
2023/04/19 02:22:29;;;;;;;;;;;;;;;;;;5069543;28;19929;-62
2023/04/19 02:24:55;;;;;;;;;;;;;;;;;;5070944;28;19927;-62
2023/04/19 02:27:21;;;;;;;;;;;;;;;;;;5070010;28;19921;-62
2023/04/19 02:29:47;;;;;;;;;;;;;;;;;;5069548;28;19920;-62
2023/04/19 02:32:13;;;;;;;;;;;;;;;;;;5065761;28;20381;-63
2023/04/19 02:34:39;;;;;;;;;;;;;;;;;;5070351;28;19924;-62
2023/04/19 02:37:05;;;;;;;;;;;;;;;;;;5073235;28;19921;-63
2023/04/19 02:39:30;;;;;;;;;;;;;;;;;;5070666;28;19935;-62
2023/04/19 02:41:56;;;;;;;;;;;;;;;;;;5074005;28;19978;-62
2023/04/19 02:44:22;;;;;;;;;;;;;;;;;;5072084;28;19959;-62
2023/04/19 02:46:49;;;;;;;;;;;;;;;;;;5073134;28;19921;-63
2023/04/19 02:49:15;;;;;;;;;;;;;;;;;;5070924;28;19925;-63
2023/04/19 02:51:40;;;;;;;;;;;;;;;;;;5072833;28;19924;-62
2023/04/19 02:54:06;;;;;;;;;;;;;;;;;;5073729;28;20400;-62
2023/04/19 02:56:32;;;;;;;;;;;;;;;;;;5074054;28;19920;-62
2023/04/19 02:58:58;;;;;;;;;;;;;;;;;;5071244;28;19924;-63
2023/04/19 03:01:24;;;;;;;;;;;;;;;;;;5055187;28;19972;-62
2023/04/19 03:03:50;;;;;;;;;;;;;;;;;;5073594;28;19966;-62
2023/04/19 03:06:16;;;;;;;;;;;;;;;;;;5060664;28;19990;-62
2023/04/19 03:08:42;;;;;;;;;;;;;;;;;;5056411;28;19924;-62
2023/04/19 03:11:08;;;;;;;;;;;;;;;;;;5072972;28;19924;-62
2023/04/19 03:13:34;;;;;;;;;;;;;;;;;;5071408;28;20011;-62
2023/04/19 03:16:00;;;;;;;;;;;;;;;;;;5073337;28;19973;-62
2023/04/19 03:18:25;;;;;;;;;;;;;;;;;;5055889;28;19932;-62
2023/04/19 03:20:51;;;;;;;;;;;;;;;;;;5074051;28;19924;-63
2023/04/19 03:23:17;;;;;;;;;;;;;;;;;;5072452;28;20353;-62
2023/04/19 03:25:43;;;;;;;;;;;;;;;;;;5062474;28;19975;-62
2023/04/19 03:28:09;;;;;;;;;;;;;;;;;;5063152;28;20023;-62
2023/04/19 03:30:35;;;;;;;;;;;;;;;;;;5068139;28;19963;-63
2023/04/19 03:33:01;;;;;;;;;;;;;;;;;;5055288;28;19927;-63
2023/04/19 03:35:28;;;;;;;;;;;;;;;;;;5053408;28;20258;-62
2023/04/19 03:37:54;;;;;;;;;;;;;;;;;;5072268;28;19943;-62
2023/04/19 03:40:20;;;;;;;;;;;;;;;;;;5072600;28;20373;-62
2023/04/19 03:42:45;;;;;;;;;;;;;;;;;;5074488;28;20691;-62
2023/04/19 03:45:11;;;;;;;;;;;;;;;;;;5087547;28;19931;-63
2023/04/19 03:47:37;;;;;;;;;;;;;;;;;;5055555;28;20421;-62
2023/04/19 03:50:03;;;;;;;;;;;;;;;;;;5074119;28;19978;-60
2023/04/19 03:52:29;;;;;;;;;;;;;;;;;;5073767;28;20062;-61
2023/04/19 03:54:55;;;;;;;;;;;;;;;;;;5054485;28;19924;-61
2023/04/19 03:57:21;;;;;;;;;;;;;;;;;;5055408;28;20320;-62
2023/04/19 03:59:47;;;;;;;;;;;;;;;;;;5039303;28;19920;-62
2023/04/19 04:02:13;;;;;;;;;;;;;;;;;;5063885;28;19927;-62
2023/04/19 04:04:38;;;;;;;;;;;;;;;;;;5072319;28;19951;-62
2023/04/19 04:07:04;;;;;;;;;;;;;;;;;;5054257;28;19921;-61
2023/04/19 04:09:30;;;;;;;;;;;;;;;;;;5036472;28;19964;-61
2023/04/19 04:11:56;;;;;;;;;;;;;;;;;;5054701;28;19976;-61
2023/04/19 04:14:22;;;;;;;;;;;;;;;;;;5071842;28;19924;-62
2023/04/19 04:16:48;;;;;;;;;;;;;;;;;;5058125;28;19921;-62
2023/04/19 04:19:14;;;;;;;;;;;;;;;;;;5072126;28;19924;-62
2023/04/19 04:21:40;;;;;;;;;;;;;;;;;;5072710;28;19927;-62
2023/04/19 04:24:06;;;;;;;;;;;;;;;;;;5072925;28;19964;-62
2023/04/19 04:26:34;;;;;;;;;;;;;;;;;;5072799;28;19921;-62
2023/04/19 04:29:00;;;;;;;;;;;;;;;;;;5072804;28;19947;-62
2023/04/19 04:31:26;;;;;;;;;;;;;;;;;;5038045;28;19932;-62
2023/04/19 04:33:53;;;;;;;;;;;;;;;;;;5073000;28;19921;-62
2023/04/19 04:36:19;;;;;;;;;;;;;;;;;;5068924;28;19925;-63
2023/04/19 04:38:45;;;;;;;;;;;;;;;;;;5061955;28;19927;-62
2023/04/19 04:41:11;;;;;;;;;;;;;;;;;;5054001;28;19924;-62
2023/04/19 04:43:38;;;;;;;;;;;;;;;;;;5071298;28;19927;-62
2023/04/19 04:46:04;;;;;;;;;;;;;;;;;;5068686;28;19943;-64
2023/04/19 04:48:30;;;;;;;;;;;;;;;;;;5072362;28;19920;-62
2023/04/19 04:50:56;;;;;;;;;;;;;;;;;;5072743;28;19932;-62
2023/04/19 04:53:22;;;;;;;;;;;;;;;;;;5072576;28;19920;-62
2023/04/19 04:55:48;;;;;;;;;;;;;;;;;;5071189;28;19931;-62
2023/04/19 04:58:14;;;;;;;;;;;;;;;;;;5087739;28;19920;-62
2023/04/19 05:00:40;;;;;;;;;;;;;;;;;;5054247;28;20547;-62
2023/04/19 05:03:06;;;;;;;;;;;;;;;;;;5064363;28;19920;-62
2023/04/19 05:05:32;;;;;;;;;;;;;;;;;;5047951;28;20373;-63
2023/04/19 05:07:58;;;;;;;;;;;;;;;;;;5067973;28;19920;-61
2023/04/19 05:10:24;;;;;;;;;;;;;;;;;;5073483;28;19927;-62
2023/04/19 05:12:49;;;;;;;;;;;;;;;;;;5072169;28;19921;-62
2023/04/19 05:15:15;;;;;;;;;;;;;;;;;;5072084;28;19928;-61
2023/04/19 05:17:42;;;;;;;;;;;;;;;;;;5072111;28;19924;-61
2023/04/19 05:20:08;;;;;;;;;;;;;;;;;;5070051;28;19925;-61
2023/04/19 05:22:34;;;;;;;;;;;;;;;;;;5053957;28;19981;-61
2023/04/19 05:25:01;;;;;;;;;;;;;;;;;;5061752;28;20015;-62
2023/04/19 05:27:26;;;;;;;;;;;;;;;;;;5076079;28;19928;-62
2023/04/19 05:29:52;;;;;;;;;;;;;;;;;;5072050;28;19924;-62
2023/04/19 05:32:19;;;;;;;;;;;;;;;;;;5071985;28;19930;-61
2023/04/19 05:34:45;;;;;;;;;;;;;;;;;;5064481;28;19924;-62
2023/04/19 05:37:11;;;;;;;;;;;;;;;;;;5060995;28;19924;-62
2023/04/19 05:39:37;;;;;;;;;;;;;;;;;;5071698;28;19983;-62
2023/04/19 05:42:03;;;;;;;;;;;;;;;;;;5080142;28;19920;-61
2023/04/19 05:44:29;;;;;;;;;;;;;;;;;;5091976;28;19928;-62
2023/04/19 05:46:54;;;;;;;;;;;;;;;;;;5077586;28;19924;-62
2023/04/19 05:49:20;;;;;;;;;;;;;;;;;;5071814;28;19920;-62
2023/04/19 05:51:46;;;;;;;;;;;;;;;;;;5054396;28;20012;-62
2023/04/19 05:54:13;;;;;;;;;;;;;;;;;;5070937;28;19966;-63
2023/04/19 05:56:39;;;;;;;;;;;;;;;;;;5072245;28;20321;-62
2023/04/19 05:59:05;;;;;;;;;;;;;;;;;;5079060;28;19927;-63
2023/04/19 06:01:31;;;;;;;;;;;;;;;;;;5070730;28;19928;-63
2023/04/19 06:03:57;;;;;;;;;;;;;;;;;;5072263;28;19925;-62
2023/04/19 06:06:23;;;;;;;;;;;;;;;;;;5072477;28;19920;-63
2023/04/19 06:08:48;;;;;;;;;;;;;;;;;;5072210;28;20023;-62
2023/04/19 06:11:14;;;;;;;;;;;;;;;;;;5076452;28;19925;-62
2023/04/19 06:13:40;;;;;;;;;;;;;;;;;;5058462;28;19920;-62
2023/04/19 06:16:06;;;;;;;;;;;;;;;;;;5077160;28;19927;-63
2023/04/19 06:18:32;;;;;;;;;;;;;;;;;;5074014;28;20276;-66
2023/04/19 06:20:58;;;;;;;;;;;;;;;;;;5068619;28;19924;-66
2023/04/19 06:23:25;;;;;;;;;;;;;;;;;;5072173;28;19932;-66
2023/04/19 06:25:51;;;;;;;;;;;;;;;;;;5060425;28;19926;-66
2023/04/19 06:28:17;;;;;;;;;;;;;;;;;;5074785;28;20015;-66
2023/04/19 06:30:43;;;;;;;;;;;;;;;;;;5046253;28;19936;-66
2023/04/19 06:33:09;;;;;;;;;;;;;;;;;;5072816;28;19925;-66
2023/04/19 06:35:35;;;;;;;;;;;;;;;;;;5075234;28;19928;-66
2023/04/19 06:38:01;;;;;;;;;;;;;;;;;;5074961;28;19933;-66
2023/04/19 06:40:30;;;;;;;;;;;;;;;;;;5054299;28;19920;-66
2023/04/19 06:42:56;;;;;;;;;;;;;;;;;;5074628;28;19927;-66
2023/04/19 06:45:22;;;;;;;;;;;;;;;;;;5074602;28;19924;-66
2023/04/19 06:47:48;;;;;;;;;;;;;;;;;;5058666;28;20277;-66
2023/04/19 06:50:14;;;;;;;;;;;;;;;;;;5069209;28;19920;-66
2023/04/19 06:52:40;;;;;;;;;;;;;;;;;;5068328;28;19921;-66
2023/04/19 06:55:05;;;;;;;;;;;;;;;;;;5049511;28;19993;-66
2023/04/19 06:57:31;;;;;;;;;;;;;;;;;;5049452;28;20380;-66
2023/04/19 06:59:57;;;;;;;;;;;;;;;;;;5072182;28;19925;-66
2023/04/19 07:02:23;;;;;;;;;;;;;;;;;;5051675;28;19924;-66
2023/04/19 07:04:49;;;;;;;;;;;;;;;;;;5074536;28;19937;-66
2023/04/19 07:07:16;;;;;;;;;;;;;;;;;;5074160;28;19932;-66
2023/04/19 07:09:42;;;;;;;;;;;;;;;;;;5054077;28;19921;-66
2023/04/19 07:12:08;;;;;;;;;;;;;;;;;;5074098;28;19928;-66
2023/04/19 07:14:33;;;;;;;;;;;;;;;;;;5074526;28;19978;-66
2023/04/19 07:16:59;;;;;;;;;;;;;;;;;;5074324;28;19961;-66
2023/04/19 07:19:27;;;;;;;;;;;;;;;;;;5074163;28;20247;-66
2023/04/19 07:21:52;;;;;;;;;;;;;;;;;;5089785;28;19920;-66
2023/04/19 07:24:18;;;;;;;;;;;;;;;;;;5062269;28;19931;-66
2023/04/19 07:26:44;;;;;;;;;;;;;;;;;;5055722;28;19920;-66
2023/04/19 07:29:10;;;;;;;;;;;;;;;;;;5072076;28;20273;-66
2023/04/19 07:31:36;;;;;;;;;;;;;;;;;;5072023;28;20062;-67
2023/04/19 07:34:02;;;;;;;;;;;;;;;;;;5047559;28;19951;-66
2023/04/19 07:36:28;;;;;;;;;;;;;;;;;;5070910;28;19927;-66
2023/04/19 07:38:54;;;;;;;;;;;;;;;;;;5055074;28;19925;-65
2023/04/19 07:41:20;;;;;;;;;;;;;;;;;;5073490;28;19970;-65
2023/04/19 07:43:46;;;;;;;;;;;;;;;;;;5055628;28;19942;-66
2023/04/19 07:46:12;;;;;;;;;;;;;;;;;;5076763;28;19920;-65
2023/04/19 07:48:38;;;;;;;;;;;;;;;;;;5058915;28;19932;-65
2023/04/19 07:51:04;;;;;;;;;;;;;;;;;;5052911;28;20317;-66
2023/04/19 07:53:29;;;;;;;;;;;;;;;;;;5081601;28;19920;-65
2023/04/19 07:55:55;;;;;;;;;;;;;;;;;;5053463;28;19927;-67
2023/04/19 07:58:21;;;;;;;;;;;;;;;;;;5068086;28;19924;-67
2023/04/19 08:00:47;;;;;;;;;;;;;;;;;;5070331;28;20286;-67
2023/04/19 08:03:13;;;;;;;;;;;;;;;;;;5067624;28;19920;-66
2023/04/19 08:05:39;;;;;;;;;;;;;;;;;;5069798;28;20094;-66
2023/04/19 08:08:05;;;;;;;;;;;;;;;;;;5070580;28;19924;-66
2023/04/19 08:10:31;;;;;;;;;;;;;;;;;;5071502;28;20406;-66
2023/04/19 08:12:57;;;;;;;;;;;;;;;;;;5065411;28;19920;-65
2023/04/19 08:15:23;;;;;;;;;;;;;;;;;;5055967;28;20620;-66
2023/04/19 08:17:48;;;;;;;;;;;;;;;;;;5047295;28;20468;-65
2023/04/19 08:20:15;;;;;;;;;;;;;;;;;;5063960;28;19925;-65
2023/04/19 08:22:41;;;;;;;;;;;;;;;;;;5070227;28;20339;-66
2023/04/19 08:25:07;;;;;;;;;;;;;;;;;;5048119;28;19932;-65
2023/04/19 08:27:32;;;;;;;;;;;;;;;;;;5065153;28;20373;-66
2023/04/19 08:29:58;;;;;;;;;;;;;;;;;;5068894;28;20291;-62
2023/04/19 08:32:24;;;;;;;;;;;;;;;;;;5070228;28;19924;-61
2023/04/19 08:34:50;;;;;;;;;;;;;;;;;;5063358;28;19974;-62
2023/04/19 08:37:16;;;;;;;;;;;;;;;;;;5064318;28;19924;-62
2023/04/19 08:39:42;;;;;;;;;;;;;;;;;;5065467;28;19974;-61
2023/04/19 08:42:08;;;;;;;;;;;;;;;;;;5069254;28;19929;-61
2023/04/19 08:44:34;;;;;;;;;;;;;;;;;;5066006;28;19935;-61
2023/04/19 08:47:00;;;;;;;;;;;;;;;;;;5073103;28;19931;-62
2023/04/19 08:49:26;;;;;;;;;;;;;;;;;;5063880;28;19927;-62
2023/04/19 08:51:52;;;;;;;;;;;;;;;;;;5068952;28;19924;-61
2023/04/19 08:54:17;;;;;;;;;;;;;;;;;;5068035;28;20332;-62
2023/04/19 08:56:43;;;;;;;;;;;;;;;;;;5071477;28;19924;-62
2023/04/19 08:59:09;;;;;;;;;;;;;;;;;;5068169;28;19924;-61
2023/04/19 09:01:35;;;;;;;;;;;;;;;;;;5069498;28;20281;-62
2023/04/19 09:04:01;;;;;;;;;;;;;;;;;;5086984;28;20281;-62
2023/04/19 09:06:27;;;;;;;;;;;;;;;;;;5071602;28;19920;-62
2023/04/19 09:08:57;;;;;;;;;;;;;;;;;;5071440;28;19921;-62
2023/04/19 09:11:23;;;;;;;;;;;;;;;;;;5087269;28;19939;-62
2023/04/19 09:13:49;;;;;;;;;;;;;;;;;;5071672;28;20014;-65
2023/04/19 09:16:15;;;;;;;;;;;;;;;;;;5069886;28;19955;-66
2023/04/19 09:18:41;;;;;;;;;;;;;;;;;;5052959;28;20382;-65
2023/04/19 09:21:07;;;;;;;;;;;;;;;;;;5089889;28;19924;-65
2023/04/19 09:23:33;;;;;;;;;;;;;;;;;;5072453;28;19944;-65
2023/04/19 09:25:59;;;;;;;;;;;;;;;;;;5070238;28;20011;-66
2023/04/19 09:28:25;;;;;;;;;;;;;;;;;;5071348;28;19924;-65
2023/04/19 09:30:51;;;;;;;;;;;;;;;;;;5071369;28;19925;-66
2023/04/19 09:33:17;;;;;;;;;;;;;;;;;;5049609;28;20385;-67
2023/04/19 09:35:43;;;;;;;;;;;;;;;;;;5070960;28;19944;-66
2023/04/19 09:38:09;;;;;;;;;;;;;;;;;;5089777;28;20400;-66
2023/04/19 09:40:35;;;;;;;;;;;;;;;;;;5080462;28;19921;-67
2023/04/19 09:43:01;;;;;;;;;;;;;;;;;;5071084;28;19943;-63
2023/04/19 09:45:27;;;;;;;;;;;;;;;;;;5072067;28;19942;-63
2023/04/19 09:47:53;;;;;;;;;;;;;;;;;;5072115;28;19920;-62
2023/04/19 09:50:19;;;;;;;;;;;;;;;;;;5069668;28;19924;-62
2023/04/19 09:52:45;;;;;;;;;;;;;;;;;;5070582;28;20379;-62
2023/04/19 09:55:11;;;;;;;;;;;;;;;;;;5069861;28;20010;-63
2023/04/19 09:57:37;;;;;;;;;;;;;;;;;;5072072;28;19927;-63
2023/04/19 10:00:07;;;;;;;;;;;;;;;;;;5072156;28;19920;-63
2023/04/19 10:02:33;;;;;;;;;;;;;;;;;;5054278;28;20027;-62
2023/04/19 10:04:59;;;;;;;;;;;;;;;;;;5071982;28;20011;-62
2023/04/19 10:07:25;;;;;;;;;;;;;;;;;;5068098;28;19985;-62
2023/04/19 10:09:51;;;;;;;;;;;;;;;;;;5058725;28;19924;-62
2023/04/19 10:12:17;;;;;;;;;;;;;;;;;;5063831;28;19997;-62
2023/04/19 10:14:43;;;;;;;;;;;;;;;;;;5071605;28;19921;-62
2023/04/19 10:17:09;;;;;;;;;;;;;;;;;;5053197;28;19924;-62
2023/04/19 10:19:35;;;;;;;;;;;;;;;;;;5053154;28;19924;-63
2023/04/19 10:22:04;;;;;;;;;;;;;;;;;;5069970;28;19920;-62
2023/04/19 10:24:30;;;;;;;;;;;;;;;;;;5071709;28;19921;-63
2023/04/19 10:26:56;;;;;;;;;;;;;;;;;;5071989;28;19924;-63
2023/04/19 10:29:22;;;;;;;;;;;;;;;;;;5071592;28;19968;-62
2023/04/19 10:31:48;;;;;;;;;;;;;;;;;;5070610;28;19972;-61
2023/04/19 10:34:14;;;;;;;;;;;;;;;;;;5060821;28;19920;-62
2023/04/19 10:36:39;;;;;;;;;;;;;;;;;;5055661;28;19974;-62
2023/04/19 10:39:05;;;;;;;;;;;;;;;;;;5072274;28;20011;-62
2023/04/19 10:41:31;;;;;;;;;;;;;;;;;;5072135;28;20378;-62
2023/04/19 10:43:57;;;;;;;;;;;;;;;;;;5072015;28;19990;-61
2023/04/19 10:46:24;;;;;;;;;;;;;;;;;;5072279;28;20247;-61
2023/04/19 10:48:52;;;;;;;;;;;;;;;;;;5053790;28;19928;-62
2023/04/19 10:51:19;;;;;;;;;;;;;;;;;;5069533;28;19994;-62
2023/04/19 10:53:45;;;;;;;;;;;;;;;;;;5070522;28;19924;-61
2023/04/19 10:56:11;;;;;;;;;;;;;;;;;;5054353;28;20571;-62
2023/04/19 10:58:36;;;;;;;;;;;;;;;;;;5074878;28;19924;-62
2023/04/19 11:01:02;;;;;;;;;;;;;;;;;;5075851;28;19920;-62
2023/04/19 11:03:28;;;;;;;;;;;;;;;;;;5075904;28;19924;-62
2023/04/19 11:05:54;;;;;;;;;;;;;;;;;;5075876;28;20385;-62
2023/04/19 11:08:20;;;;;;;;;;;;;;;;;;5074278;28;19927;-62
2023/04/19 11:10:46;;;;;;;;;;;;;;;;;;5059492;28;20411;-62
2023/04/19 11:13:12;;;;;;;;;;;;;;;;;;5057670;28;19927;-62
2023/04/19 11:15:38;;;;;;;;;;;;;;;;;;5057039;28;19963;-63
2023/04/19 11:18:04;;;;;;;;;;;;;;;;;;5075645;28;19966;-62
2023/04/19 11:20:31;;;;;;;;;;;;;;;;;;5073772;28;19925;-61
2023/04/19 11:22:59;;;;;;;;;;;;;;;;;;5056229;28;19970;-62
2023/04/19 11:25:26;;;;;;;;;;;;;;;;;;5073587;28;19944;-62
2023/04/19 11:27:52;;;;;;;;;;;;;;;;;;5070993;28;20296;-63
2023/04/19 11:30:20;;;;;;;;;;;;;;;;;;5074329;28;20003;-62
2023/04/19 11:32:46;;;;;;;;;;;;;;;;;;5074192;28;19928;-62
2023/04/19 11:35:12;;;;;;;;;;;;;;;;;;5066299;28;19920;-62
2023/04/19 11:37:37;;;;;;;;;;;;;;;;;;5073240;28;19928;-62
2023/04/19 11:40:04;;;;;;;;;;;;;;;;;;5074221;28;19924;-62
2023/04/19 11:42:29;;;;;;;;;;;;;;;;;;5072821;28;20393;-63
2023/04/19 11:44:57;;;;;;;;;;;;;;;;;;5068827;28;19927;-62
2023/04/19 11:47:24;;;;;;;;;;;;;;;;;;5073214;28;21323;-66
2023/04/19 11:49:50;;;;;;;;;;;;;;;;;;5055197;28;20389;-66
2023/04/19 11:52:16;;;;;;;;;;;;;;;;;;5072702;28;19924;-67
2023/04/19 11:54:45;;;;;;;;;;;;;;;;;;5072193;28;19927;-66
2023/04/19 11:57:11;;;;;;;;;;;;;;;;;;5052475;28;19928;-62
2023/04/19 11:59:37;;;;;;;;;;;;;;;;;;5045076;28;19935;-62
2023/04/19 12:02:03;;;;;;;;;;;;;;;;;;5073625;28;19943;-63
2023/04/19 12:04:29;;;;;;;;;;;;;;;;;;5073872;28;19920;-62
2023/04/19 12:06:55;;;;;;;;;;;;;;;;;;5071485;28;19927;-62
2023/04/19 12:09:21;;;;;;;;;;;;;;;;;;5046894;28;19925;-62
2023/04/19 12:11:51;;;;;;;;;;;;;;;;;;5074944;28;20388;-62
2023/04/19 12:14:18;;;;;;;;;;;;;;;;;;5073550;28;20023;-62
2023/04/19 12:16:44;;;;;;;;;;;;;;;;;;5089022;28;19920;-62
2023/04/19 12:19:12;;;;;;;;;;;;;;;;;;5073365;28;20293;-62
2023/04/19 12:21:38;;;;;;;;;;;;;;;;;;5072169;28;19920;-62
2023/04/19 12:24:04;;;;;;;;;;;;;;;;;;5073176;28;19958;-62
2023/04/19 12:26:30;;;;;;;;;;;;;;;;;;5073141;28;20254;-62
2023/04/19 12:28:56;;;;;;;;;;;;;;;;;;5054877;28;19920;-62
2023/04/19 12:31:22;;;;;;;;;;;;;;;;;;5042910;28;19928;-62
2023/04/19 12:33:48;;;;;;;;;;;;;;;;;;5069925;28;19925;-62
2023/04/19 12:36:14;;;;;;;;;;;;;;;;;;5071438;28;19966;-62
2023/04/19 12:38:40;;;;;;;;;;;;;;;;;;5071634;28;19991;-62
2023/04/19 12:41:05;;;;;;;;;;;;;;;;;;5072511;28;19924;-63
2023/04/19 12:43:31;;;;;;;;;;;;;;;;;;5072746;28;19972;-62
2023/04/19 12:45:57;;;;;;;;;;;;;;;;;;5054938;28;20003;-62
2023/04/19 12:48:23;;;;;;;;;;;;;;;;;;5072790;28;20441;-61
2023/04/19 12:50:49;;;;;;;;;;;;;;;;;;5071318;28;19932;-61
2023/04/19 12:53:15;;;;;;;;;;;;;;;;;;5071712;28;19926;-61
2023/04/19 12:55:41;;;;;;;;;;;;;;;;;;5053710;28;19920;-62
2023/04/19 12:58:07;;;;;;;;;;;;;;;;;;5072118;28;19924;-61
2023/04/19 13:00:33;;;;;;;;;;;;;;;;;;5072671;28;19925;-62
2023/04/19 13:02:59;;;;;;;;;;;;;;;;;;5055115;28;20500;-62
2023/04/19 13:05:25;;;;;;;;;;;;;;;;;;5073212;28;19921;-62
2023/04/19 13:07:51;;;;;;;;;;;;;;;;;;5071078;28;19943;-62
2023/04/19 13:10:17;;;;;;;;;;;;;;;;;;5072749;28;19986;-62
2023/04/19 13:12:43;;;;;;;;;;;;;;;;;;5072682;28;19928;-62
2023/04/19 13:15:08;;;;;;;;;;;;;;;;;;5072908;28;20395;-62
2023/04/19 13:17:34;;;;;;;;;;;;;;;;;;5071156;28;20361;-62
2023/04/19 13:20:00;;;;;;;;;;;;;;;;;;5071852;28;20011;-62
2023/04/19 13:22:26;;;;;;;;;;;;;;;;;;5071162;28;20289;-62
2023/04/19 13:24:52;;;;;;;;;;;;;;;;;;5072981;28;19921;-62
2023/04/19 13:27:18;;;;;;;;;;;;;;;;;;5072707;28;19921;-62
2023/04/19 13:29:44;;;;;;;;;;;;;;;;;;5054548;28;19928;-62
2023/04/19 13:32:11;;;;;;;;;;;;;;;;;;5072418;28;20275;-62
2023/04/19 13:34:37;;;;;;;;;;;;;;;;;;5070022;28;19920;-61
2023/04/19 13:37:02;;;;;;;;;;;;;;;;;;5066521;28;19930;-62
2023/04/19 13:39:28;;;;;;;;;;;;;;;;;;5071578;28;19920;-62
2023/04/19 13:41:54;;;;;;;;;;;;;;;;;;5071136;28;19921;-62
2023/04/19 13:44:20;;;;;;;;;;;;;;;;;;5067882;28;19929;-62
2023/04/19 13:46:46;;;;;;;;;;;;;;;;;;5071855;28;19931;-62
2023/04/19 13:49:12;;;;;;;;;;;;;;;;;;5071660;28;19928;-62
2023/04/19 13:51:38;;;;;;;;;;;;;;;;;;5070036;28;19924;-62
2023/04/19 13:54:04;;;;;;;;;;;;;;;;;;5071091;28;19964;-62
2023/04/19 13:56:30;;;;;;;;;;;;;;;;;;5071957;28;20309;-62
2023/04/19 13:58:56;;;;;;;;;;;;;;;;;;5091790;28;19921;-62
2023/04/19 14:01:21;;;;;;;;;;;;;;;;;;5067868;28;19965;-62
2023/04/19 14:03:47;;;;;;;;;;;;;;;;;;5069424;28;19920;-62
2023/04/19 14:06:13;;;;;;;;;;;;;;;;;;5071266;28;20405;-62
2023/04/19 14:08:39;;;;;;;;;;;;;;;;;;5053090;28;19928;-62
2023/04/19 14:11:05;;;;;;;;;;;;;;;;;;5071208;28;19925;-62
2023/04/19 14:13:31;;;;;;;;;;;;;;;;;;5071485;28;20008;-62
2023/04/19 14:15:57;;;;;;;;;;;;;;;;;;5053689;28;19951;-63
2023/04/19 14:18:23;;;;;;;;;;;;;;;;;;5071387;28;20364;-63
2023/04/19 14:20:49;;;;;;;;;;;;;;;;;;5051371;28;19925;-63
2023/04/19 14:23:14;;;;;;;;;;;;;;;;;;5071145;28;19921;-63
2023/04/19 14:25:40;;;;;;;;;;;;;;;;;;5071245;28;19924;-63
2023/04/19 14:28:06;;;;;;;;;;;;;;;;;;5053007;28;19924;-61
2023/04/19 14:30:32;;;;;;;;;;;;;;;;;;5071096;28;19927;-62
2023/04/19 14:32:58;;;;;;;;;;;;;;;;;;5073964;28;20370;-62
2023/04/19 14:35:24;;;;;;;;;;;;;;;;;;5058757;22;20614;-65
2023/04/19 14:37:50;;;;;;;;;;;;;;;;;;5073083;28;19924;-66
2023/04/19 14:40:17;;;;;;;;;;;;;;;;;;5056990;28;19920;-66
2023/04/19 14:42:43;;;;;;;;;;;;;;;;;;5073295;28;19931;-66
2023/04/19 14:45:09;;;;;;;;;;;;;;;;;;5060452;28;19928;-66
2023/04/19 14:47:35;;;;;;;;;;;;;;;;;;5072187;28;20007;-66
2023/04/19 14:50:01;;;;;;;;;;;;;;;;;;5032617;28;19925;-66
2023/04/19 14:52:28;;;;;;;;;;;;;;;;;;5067596;28;19932;-66
2023/04/19 14:54:54;;;;;;;;;;;;;;;;;;5067592;28;19970;-66
2023/04/19 14:57:19;;;;;;;;;;;;;;;;;;5072821;28;19925;-62
2023/04/19 14:59:45;;;;;;;;;;;;;;;;;;5074318;28;19931;-62
2023/04/19 15:02:12;;;;;;;;;;;;;;;;;;5072453;28;19920;-62
2023/04/19 15:04:37;;;;;;;;;;;;;;;;;;5074307;28;20328;-62
2023/04/19 15:07:03;;;;;;;;;;;;;;;;;;5061147;28;19925;-62
2023/04/19 15:09:29;;;;;;;;;;;;;;;;;;5057354;28;19925;-62
2023/04/19 15:11:56;;;;;;;;;;;;;;;;;;5054902;28;19933;-62
2023/04/19 15:14:22;;;;;;;;;;;;;;;;;;5071649;28;19924;-63
2023/04/19 15:16:48;;;;;;;;;;;;;;;;;;5074276;28;19924;-62
2023/04/19 15:19:14;;;;;;;;;;;;;;;;;;5053275;28;20007;-61
2023/04/19 15:21:40;;;;;;;;;;;;;;;;;;5067343;28;19926;-62
2023/04/19 15:24:06;;;;;;;;;;;;;;;;;;5056400;28;19925;-61
2023/04/19 15:26:32;;;;;;;;;;;;;;;;;;5072068;28;19928;-61
2023/04/19 15:28:58;;;;;;;;;;;;;;;;;;5056570;28;19920;-62
2023/04/19 15:31:24;;;;;;;;;;;;;;;;;;5056147;28;19925;-62
2023/04/19 15:33:50;;;;;;;;;;;;;;;;;;5069007;28;19939;-62
2023/04/19 15:36:16;;;;;;;;;;;;;;;;;;5053339;28;19928;-62
2023/04/19 15:38:42;;;;;;;;;;;;;;;;;;5063539;28;19955;-62
2023/04/19 15:41:08;;;;;;;;;;;;;;;;;;5073029;28;19925;-62
2023/04/19 15:43:34;;;;;;;;;;;;;;;;;;5060720;28;20293;-63
2023/04/19 15:46:00;;;;;;;;;;;;;;;;;;5072801;28;19970;-61
2023/04/19 15:48:26;;;;;;;;;;;;;;;;;;5071395;28;19964;-61
2023/04/19 15:50:52;;;;;;;;;;;;;;;;;;5061847;28;20271;-61
2023/04/19 15:53:18;;;;;;;;;;;;;;;;;;5074646;28;19927;-62
2023/04/19 15:55:45;;;;;;;;;;;;;;;;;;5073863;28;19924;-62
2023/04/19 15:58:11;;;;;;;;;;;;;;;;;;5067286;28;20030;-62
2023/04/19 16:00:37;;;;;;;;;;;;;;;;;;5064588;28;20337;-62
2023/04/19 16:03:03;;;;;;;;;;;;;;;;;;5053121;28;19925;-63
2023/04/19 16:05:29;;;;;;;;;;;;;;;;;;5053602;28;20081;-62
2023/04/19 16:07:55;;;;;;;;;;;;;;;;;;5054053;28;19920;-62
2023/04/19 16:10:21;;;;;;;;;;;;;;;;;;5060339;28;19967;-61
2023/04/19 16:12:46;;;;;;;;;;;;;;;;;;5072209;28;19928;-61
2023/04/19 16:15:13;;;;;;;;;;;;;;;;;;5073181;28;19931;-62
2023/04/19 16:17:38;;;;;;;;;;;;;;;;;;5073560;28;20008;-63
2023/04/19 16:20:04;;;;;;;;;;;;;;;;;;5057848;28;19996;-62
2023/04/19 16:22:31;;;;;;;;;;;;;;;;;;5070942;28;20302;-62
2023/04/19 16:24:57;;;;;;;;;;;;;;;;;;5046473;28;20420;-62
2023/04/19 16:27:23;;;;;;;;;;;;;;;;;;5063378;28;19967;-62
2023/04/19 16:29:49;;;;;;;;;;;;;;;;;;5071688;28;20015;-62
2023/04/19 16:32:15;;;;;;;;;;;;;;;;;;5068152;28;19924;-62
2023/04/19 16:34:41;;;;;;;;;;;;;;;;;;5056907;28;19928;-62
2023/04/19 16:37:07;;;;;;;;;;;;;;;;;;5072323;28;20247;-62